createdAt,value
2022-10-29T00:00:33.482Z,102131.50
2022-10-29T00:03:20.256Z,102129.16
2022-10-29T00:06:28.750Z,102126.65
2022-10-29T00:08:57.359Z,102124.73
2022-10-29T00:11:30.637Z,102123.55
2022-10-29T00:14:02.245Z,102125.26
2022-10-29T00:16:35.819Z,102121.27
2022-10-29T00:19:14.431Z,102122.22
2022-10-29T00:21:56.832Z,102121.64
2022-10-29T00:24:24.967Z,102119.13
2022-10-29T00:26:56.436Z,102119.09
2022-10-29T00:29:24.442Z,102115.73
2022-10-29T00:35:33.220Z,102116.14
2022-10-29T00:38:02.059Z,102115.29
2022-10-29T00:40:30.120Z,102117.22
2022-10-29T00:43:28.601Z,102114.73
2022-10-29T00:46:06.873Z,102114.58
2022-10-29T00:48:38.624Z,102114.98
2022-10-29T00:51:17.165Z,102113.42
2022-10-29T00:53:56.186Z,102108.95
2022-10-29T00:56:37.862Z,102103.83
2022-10-29T00:59:10.333Z,102104.95
2022-10-29T01:01:40.209Z,102103.55
2022-10-29T01:04:16.209Z,102103.67
2022-10-29T01:06:48.212Z,102101.26
2022-10-29T01:09:16.346Z,102097.91
2022-10-29T01:12:25.956Z,102096.64
2022-10-29T01:15:28.230Z,102095.25
2022-10-29T01:18:36.455Z,102093.12
2022-10-29T01:21:42.499Z,102091.79
2022-10-29T01:24:15.727Z,102091.88
2022-10-29T01:27:18.165Z,102090.17
2022-10-29T01:30:17.091Z,102087.15
2022-10-29T01:33:14.739Z,102088.64
2022-10-29T01:36:20.043Z,102083.52
2022-10-29T01:39:06.763Z,102080.28
2022-10-29T01:41:45.059Z,102078.58
2022-10-29T01:44:55.009Z,102072.06
2022-10-29T01:47:29.282Z,102070.94
2022-10-29T01:50:07.065Z,102068.28
2022-10-29T01:52:43.332Z,102062.39
2022-10-29T01:55:32.975Z,102060.27
2022-10-29T01:58:01.000Z,102055.63
2022-10-29T02:01:16.185Z,102055.67
2022-10-29T02:04:01.541Z,102052.64
2022-10-29T02:06:49.063Z,102049.65
2022-10-29T02:09:31.787Z,102045.40
2022-10-29T02:15:12.591Z,102042.72
2022-10-29T02:18:26.404Z,102040.21
2022-10-29T02:20:54.909Z,102037.83
2022-10-29T02:23:24.596Z,102036.50
2022-10-29T02:25:55.492Z,102033.08
2022-10-29T02:28:23.648Z,102033.39
2022-10-29T02:30:54.451Z,102030.98
2022-10-29T02:36:12.435Z,102022.98
2022-10-29T02:39:02.688Z,102022.61
2022-10-29T02:41:29.331Z,102022.99
2022-10-29T02:43:56.949Z,102020.39
2022-10-29T02:46:29.150Z,102018.30
2022-10-29T02:49:01.709Z,102016.92
2022-10-29T02:51:33.189Z,102017.50
2022-10-29T02:54:11.893Z,102024.12
2022-10-29T02:56:40.330Z,102019.84
2022-10-29T02:59:12.008Z,102021.38
2022-10-29T03:01:46.153Z,102019.74
2022-10-29T03:04:15.531Z,102022.94
2022-10-29T03:06:51.386Z,102023.95
2022-10-29T03:09:28.735Z,102025.55
2022-10-29T03:12:02.238Z,102028.29
2022-10-29T03:14:33.904Z,102025.14
2022-10-29T03:17:03.299Z,102029.67
2022-10-29T03:19:45.580Z,102029.83
2022-10-29T03:22:16.612Z,102024.49
2022-10-29T03:24:50.244Z,102023.69
2022-10-29T03:27:18.277Z,102024.55
2022-10-29T03:29:46.128Z,102023.85
2022-10-29T03:32:14.440Z,102024.39
2022-10-29T03:34:42.456Z,102022.21
2022-10-29T03:37:14.180Z,102022.16
2022-10-29T03:39:42.200Z,102023.86
2022-10-29T03:42:28.071Z,102024.02
2022-10-29T03:45:00.578Z,102031.86
2022-10-29T03:47:29.645Z,102031.20
2022-10-29T03:50:01.022Z,102033.92
2022-10-29T03:52:29.015Z,102031.95
2022-10-29T03:54:57.100Z,102029.65
2022-10-29T03:57:28.312Z,102025.14
2022-10-29T03:59:58.745Z,102028.21
2022-10-29T04:02:28.330Z,102025.95
2022-10-29T04:04:59.628Z,102024.79
2022-10-29T04:07:28.978Z,102025.56
2022-10-29T04:09:56.736Z,102025.84
2022-10-29T04:12:27.671Z,102023.33
2022-10-29T04:14:58.571Z,102024.94
2022-10-29T04:17:29.775Z,102026.48
2022-10-29T04:19:57.974Z,102024.88
2022-10-29T04:28:41.471Z,102024.95
2022-10-29T04:30:32.969Z,102026.05
2022-10-29T04:33:00.832Z,102028.38
2022-10-29T04:35:28.930Z,102031.04
2022-10-29T04:37:55.969Z,102030.50
2022-10-29T04:40:24.645Z,102028.59
2022-10-29T04:42:51.730Z,102029.80
2022-10-29T04:45:19.040Z,102023.95
2022-10-29T04:47:46.391Z,102026.73
2022-10-29T04:50:13.613Z,102024.55
2022-10-29T04:52:40.631Z,102023.58
2022-10-29T04:55:08.062Z,102021.55
2022-10-29T04:57:35.013Z,102023.31
2022-10-29T05:00:02.251Z,102020.65
2022-10-29T05:02:29.191Z,102019.46
2022-10-29T05:04:56.195Z,102022.20
2022-10-29T05:07:23.047Z,102018.42
2022-10-29T05:09:50.059Z,102016.33
2022-10-29T05:12:17.109Z,102020.55
2022-10-29T05:14:44.159Z,102017.25
2022-10-29T05:17:11.201Z,102022.84
2022-10-29T05:19:38.163Z,102021.77
2022-10-29T05:22:05.291Z,102029.02
2022-10-29T05:24:32.189Z,102026.34
2022-10-29T05:26:59.311Z,102022.66
2022-10-29T05:29:26.343Z,102023.83
2022-10-29T05:31:54.868Z,102023.60
2022-10-29T05:34:21.819Z,102023.83
2022-10-29T05:36:49.126Z,102026.27
2022-10-29T05:39:16.889Z,102024.83
2022-10-29T05:41:44.346Z,102025.20
2022-10-29T05:44:11.396Z,102025.04
2022-10-29T05:46:38.576Z,102027.70
2022-10-29T05:49:05.708Z,102030.56
2022-10-29T05:51:32.650Z,102029.02
2022-10-29T05:53:59.695Z,102032.06
2022-10-29T05:56:27.074Z,102028.82
2022-10-29T05:58:54.101Z,102029.94
2022-10-29T06:01:21.185Z,102034.40
2022-10-29T06:03:48.467Z,102032.27
2022-10-29T06:06:15.709Z,102037.27
2022-10-29T06:08:42.854Z,102034.17
2022-10-29T06:11:09.860Z,102037.36
2022-10-29T06:13:36.909Z,102039.40
2022-10-29T06:16:04.000Z,102042.91
2022-10-29T06:18:31.003Z,102044.55
2022-10-29T06:21:00.841Z,102048.61
2022-10-29T06:23:28.892Z,102050.59
2022-10-29T06:25:58.889Z,102053.52
2022-10-29T06:28:28.073Z,102052.67
2022-10-29T06:30:57.718Z,102055.17
2022-10-29T06:33:24.874Z,102061.61
2022-10-29T06:35:51.919Z,102058.30
2022-10-29T06:38:18.970Z,102061.77
2022-10-29T06:40:53.533Z,102067.25
2022-10-29T06:43:21.163Z,102068.65
2022-10-29T06:45:50.460Z,102069.55
2022-10-29T06:48:21.659Z,102069.91
2022-10-29T06:50:50.608Z,102074.19
2022-10-29T06:53:18.365Z,102075.48
2022-10-29T06:55:45.516Z,102074.19
2022-10-29T06:58:15.643Z,102080.85
2022-10-29T07:00:43.605Z,102079.67
2022-10-29T07:03:15.407Z,102081.54
2022-10-29T07:05:42.759Z,102080.52
2022-10-29T07:08:10.041Z,102079.13
2022-10-29T07:10:37.367Z,102083.29
2022-10-29T07:13:04.522Z,102081.21
2022-10-29T07:15:31.530Z,102083.63
2022-10-29T07:18:07.167Z,102086.72
2022-10-29T07:20:37.719Z,102086.73
2022-10-29T07:23:05.481Z,102087.05
2022-10-29T07:25:34.166Z,102089.30
2022-10-29T07:28:12.276Z,102089.08
2022-10-29T07:30:39.617Z,102088.23
2022-10-29T07:33:06.644Z,102086.37
2022-10-29T07:35:34.689Z,102088.24
2022-10-29T07:38:07.240Z,102089.95
2022-10-29T07:40:40.757Z,102090.50
2022-10-29T07:43:09.113Z,102089.85
2022-10-29T07:45:36.165Z,102093.75
2022-10-29T07:48:07.666Z,102096.09
2022-10-29T07:50:34.765Z,102090.48
2022-10-29T07:53:02.533Z,102095.11
2022-10-29T07:58:05.457Z,102096.92
2022-10-29T08:00:35.999Z,102096.40
2022-10-29T08:03:03.224Z,102099.80
2022-10-29T08:05:31.462Z,102100.73
2022-10-29T08:07:59.386Z,102100.21
2022-10-29T08:10:27.188Z,102100.96
2022-10-29T08:12:59.108Z,102106.86
2022-10-29T08:15:28.512Z,102106.81
2022-10-29T08:17:55.784Z,102109.20
2022-10-29T08:20:25.165Z,102111.06
2022-10-29T08:22:52.210Z,102108.13
2022-10-29T08:25:19.798Z,102110.16
2022-10-29T08:27:59.226Z,102108.98
2022-10-29T08:30:26.261Z,102110.15
2022-10-29T08:32:53.375Z,102111.63
2022-10-29T08:35:20.890Z,102110.88
2022-10-29T08:37:48.687Z,102108.27
2022-10-29T08:40:26.142Z,102111.52
2022-10-29T08:43:27.381Z,102113.69
2022-10-29T08:45:55.763Z,102112.73
2022-10-29T08:48:44.570Z,102115.61
2022-10-29T08:51:36.955Z,102121.74
2022-10-29T08:56:55.246Z,102124.20
2022-10-29T08:59:25.334Z,102122.44
2022-10-29T09:01:54.110Z,102122.67
2022-10-29T09:04:34.926Z,102124.36
2022-10-29T09:07:41.092Z,102125.32
2022-10-29T09:10:25.637Z,102119.03
2022-10-29T09:13:21.460Z,102112.21
2022-10-29T09:16:01.500Z,102112.16
2022-10-29T09:19:01.258Z,102110.63
2022-10-29T09:21:34.528Z,102106.88
2022-10-29T09:24:30.742Z,102109.50
2022-10-29T09:27:08.078Z,102110.46
2022-10-29T09:30:02.586Z,102110.29
2022-10-29T09:32:41.905Z,102108.21
2022-10-29T09:35:15.008Z,102107.78
2022-10-29T09:37:56.843Z,102107.41
2022-10-29T09:40:27.046Z,102106.73
2022-10-29T09:42:54.671Z,102104.52
2022-10-29T09:45:29.075Z,102103.66
2022-10-29T09:48:16.529Z,102101.77
2022-10-29T09:50:46.570Z,102101.92
2022-10-29T09:53:15.084Z,102100.01
2022-10-29T09:55:47.256Z,102098.64
2022-10-29T09:58:23.610Z,102095.80
2022-10-29T10:00:52.477Z,102094.15
2022-10-29T10:03:29.776Z,102095.27
2022-10-29T10:06:03.366Z,102097.46
2022-10-29T10:08:33.508Z,102097.58
2022-10-29T10:11:07.935Z,102092.39
2022-10-29T10:13:51.351Z,102093.30
2022-10-29T10:16:28.706Z,102093.56
2022-10-29T10:18:58.212Z,102091.33
2022-10-29T10:21:35.367Z,102089.83
2022-10-29T10:24:35.581Z,102085.61
2022-10-29T10:27:20.451Z,102087.36
2022-10-29T10:30:16.821Z,102085.92
2022-10-29T10:32:44.586Z,102085.98
2022-10-29T10:35:28.886Z,102083.11
2022-10-29T10:38:00.343Z,102083.91
2022-10-29T10:40:30.002Z,102079.27
2022-10-29T10:42:57.982Z,102078.85
2022-10-29T10:45:42.052Z,102074.05
2022-10-29T10:48:13.473Z,102073.56
2022-10-29T10:50:45.865Z,102069.67
2022-10-29T10:53:26.491Z,102066.15
2022-10-29T10:56:00.821Z,102065.02
2022-10-29T10:58:45.849Z,102063.23
2022-10-29T11:01:27.398Z,102062.92
2022-10-29T11:04:26.239Z,102058.02
2022-10-29T11:07:00.754Z,102057.21
2022-10-29T11:09:34.471Z,102056.73
2022-10-29T11:12:15.234Z,102048.48
2022-10-29T11:15:02.498Z,102048.56
2022-10-29T11:17:52.991Z,102046.48
2022-10-29T11:20:29.816Z,102047.20
2022-10-29T11:23:12.942Z,102042.08
2022-10-29T11:26:19.376Z,102036.44
2022-10-29T11:28:58.599Z,102036.11
2022-10-29T11:31:45.252Z,102034.73
2022-10-29T11:34:27.518Z,102033.39
2022-10-29T11:37:34.337Z,102030.61
2022-10-29T11:40:15.197Z,102025.23
2022-10-29T11:42:44.390Z,102024.69
2022-10-29T11:45:17.635Z,102021.75
2022-10-29T11:48:21.970Z,102018.81
2022-10-29T11:51:01.492Z,102014.92
2022-10-29T11:54:00.694Z,102014.34
2022-10-29T11:56:40.827Z,102004.06
2022-10-29T11:59:23.329Z,102003.09
2022-10-29T12:02:18.769Z,101996.74
2022-10-29T12:04:54.988Z,101999.45
2022-10-29T12:08:01.502Z,101997.11
2022-10-29T12:10:31.876Z,101992.67
2022-10-29T12:13:27.671Z,101986.83
2022-10-29T12:16:10.941Z,101987.43
2022-10-29T12:18:53.151Z,101983.80
2022-10-29T12:21:37.478Z,101982.30
2022-10-29T12:24:21.308Z,101977.45
2022-10-29T12:27:11.279Z,101971.70
2022-10-29T12:29:49.037Z,101973.29
2022-10-29T12:32:30.271Z,101971.48
2022-10-29T12:35:34.749Z,101968.23
2022-10-29T12:38:20.848Z,101967.80
2022-10-29T12:40:52.784Z,101968.88
2022-10-29T12:43:28.609Z,101966.73
2022-10-29T12:46:29.300Z,101965.73
2022-10-29T12:49:40.084Z,101964.88
2022-10-29T12:52:45.871Z,101959.59
2022-10-29T12:55:17.538Z,101963.23
2022-10-29T12:57:48.687Z,101961.04
2022-10-29T13:00:46.006Z,101959.23
2022-10-29T13:03:53.577Z,101959.23
2022-10-29T13:07:02.743Z,101954.09
2022-10-29T13:09:37.733Z,101950.59
2022-10-29T13:12:14.158Z,101953.73
2022-10-29T13:14:56.432Z,101953.38
2022-10-29T13:17:43.741Z,101951.52
2022-10-29T13:20:39.937Z,101950.79
2022-10-29T13:23:32.721Z,101946.31
2022-10-29T13:26:01.830Z,101946.89
2022-10-29T13:28:38.305Z,101944.80
2022-10-29T13:31:18.994Z,101944.65
2022-10-29T13:33:47.679Z,101944.80
2022-10-29T13:36:20.830Z,101942.95
2022-10-29T13:39:05.538Z,101939.91
2022-10-29T13:41:43.666Z,101941.25
2022-10-29T13:44:20.880Z,101941.98
2022-10-29T13:47:05.837Z,101944.55
2022-10-29T13:49:44.545Z,101940.65
2022-10-29T13:52:17.240Z,101940.23
2022-10-29T13:54:53.396Z,101943.06
2022-10-29T13:57:36.831Z,101939.73
2022-10-29T14:00:21.076Z,101933.55
2022-10-29T14:03:28.217Z,101935.41
2022-10-29T14:06:16.393Z,101935.00
2022-10-29T14:08:56.726Z,101932.39
2022-10-29T14:12:00.298Z,101934.89
2022-10-29T14:14:37.444Z,101931.16
2022-10-29T14:17:18.127Z,101926.73
2022-10-29T14:19:52.505Z,101926.26
2022-10-29T14:22:43.106Z,101926.48
2022-10-29T14:25:34.373Z,101924.87
2022-10-29T14:28:21.900Z,101918.77
2022-10-29T14:31:22.748Z,101922.67
2022-10-29T14:34:08.013Z,101922.14
2022-10-29T14:36:46.494Z,101918.09
2022-10-29T14:39:55.600Z,101916.77
2022-10-29T14:42:41.269Z,101914.41
2022-10-29T14:45:22.270Z,101913.30
2022-10-29T14:47:59.447Z,101915.27
2022-10-29T14:50:28.696Z,101913.73
2022-10-29T14:53:08.491Z,101915.92
2022-10-29T14:55:41.010Z,101910.09
2022-10-29T14:58:17.967Z,101912.77
2022-10-29T15:01:06.710Z,101913.19
2022-10-29T15:03:37.615Z,101908.05
2022-10-29T15:06:22.338Z,101908.49
2022-10-29T15:09:00.187Z,101908.12
2022-10-29T15:11:43.490Z,101906.92
2022-10-29T15:17:01.837Z,101909.77
2022-10-29T15:19:32.196Z,101905.48
2022-10-29T15:22:02.749Z,101907.08
2022-10-29T15:24:31.109Z,101904.05
2022-10-29T15:27:14.803Z,101902.73
2022-10-29T15:29:49.017Z,101902.86
2022-10-29T15:32:19.332Z,101899.98
2022-10-29T15:34:51.842Z,101901.59
2022-10-29T15:37:20.264Z,101901.98
2022-10-29T15:39:57.121Z,101903.79
2022-10-29T15:42:28.232Z,101905.93
2022-10-29T15:45:08.265Z,101903.00
2022-10-29T15:47:41.001Z,101904.39
2022-10-29T15:50:13.238Z,101903.21
2022-10-29T15:52:45.337Z,101899.95
2022-10-29T15:55:28.614Z,101903.21
2022-10-29T15:58:09.604Z,101902.79
2022-10-29T16:00:37.386Z,101901.02
2022-10-29T16:03:28.385Z,101900.13
2022-10-29T16:06:05.029Z,101902.30
2022-10-29T16:08:37.952Z,101902.36
2022-10-29T16:11:08.666Z,101903.59
2022-10-29T16:13:36.574Z,101903.96
2022-10-29T16:16:04.808Z,101905.72
2022-10-29T16:18:32.294Z,101906.79
2022-10-29T16:21:06.930Z,101904.38
2022-10-29T16:23:40.417Z,101905.40
2022-10-29T16:26:11.203Z,101906.58
2022-10-29T16:28:38.513Z,101909.14
2022-10-29T16:31:24.525Z,101906.73
2022-10-29T16:33:58.921Z,101918.50
2022-10-29T16:36:26.880Z,101917.27
2022-10-29T16:38:54.518Z,101917.67
2022-10-29T16:41:23.130Z,101919.85
2022-10-29T16:43:51.502Z,101928.58
2022-10-29T16:46:20.519Z,101929.11
2022-10-29T16:48:49.207Z,101931.71
2022-10-29T16:51:20.027Z,101935.23
2022-10-29T16:53:50.367Z,101937.67
2022-10-29T16:56:18.843Z,101934.17
2022-10-29T16:58:47.009Z,101936.24
2022-10-29T17:01:15.329Z,101939.13
2022-10-29T17:03:43.050Z,101940.30
2022-10-29T17:06:12.353Z,101939.50
2022-10-29T17:08:43.026Z,101941.10
2022-10-29T17:11:12.322Z,101941.27
2022-10-29T17:13:41.065Z,101946.01
2022-10-29T17:16:20.394Z,101947.66
2022-10-29T17:18:52.366Z,101950.61
2022-10-29T17:21:20.210Z,101953.66
2022-10-29T17:23:49.025Z,101952.54
2022-10-29T17:26:17.220Z,101955.31
2022-10-29T17:28:44.770Z,101957.12
2022-10-29T17:31:13.451Z,101954.30
2022-10-29T17:33:42.825Z,101954.36
2022-10-29T17:36:15.498Z,101958.24
2022-10-29T17:38:43.095Z,101956.23
2022-10-29T17:41:10.930Z,101958.37
2022-10-29T17:43:38.832Z,101960.52
2022-10-29T17:46:06.567Z,101966.88
2022-10-29T17:48:34.258Z,101967.83
2022-10-29T17:51:04.788Z,101964.19
2022-10-29T17:53:33.720Z,101967.55
2022-10-29T17:56:02.263Z,101970.84
2022-10-29T17:58:31.787Z,101970.42
2022-10-29T18:01:11.223Z,101974.21
2022-10-29T18:03:39.276Z,101973.10
2022-10-29T18:06:10.382Z,101972.66
2022-10-29T18:08:40.913Z,101974.63
2022-10-29T18:11:20.416Z,101978.48
2022-10-29T18:13:51.325Z,101977.73
2022-10-29T18:16:21.446Z,101984.66
2022-10-29T18:19:01.200Z,101982.36
2022-10-29T18:21:31.083Z,101985.67
2022-10-29T18:24:01.967Z,101987.27
2022-10-29T18:26:35.844Z,101984.55
2022-10-29T18:29:08.507Z,101981.95
2022-10-29T18:31:38.154Z,101983.32
2022-10-29T18:34:08.320Z,101981.73
2022-10-29T18:36:43.464Z,101977.04
2022-10-29T18:39:11.314Z,101974.05
2022-10-29T18:41:41.336Z,101972.89
2022-10-29T18:44:09.855Z,101970.22
2022-10-29T18:46:37.862Z,101969.84
2022-10-29T18:49:05.407Z,101969.77
2022-10-29T18:51:33.841Z,101968.49
2022-10-29T18:54:01.483Z,101970.95
2022-10-29T18:56:34.489Z,101970.13
2022-10-29T18:59:02.236Z,101974.59
2022-10-29T19:01:32.563Z,101974.43
2022-10-29T19:04:03.539Z,101976.23
2022-10-29T19:06:34.455Z,101974.42
2022-10-29T19:09:04.575Z,101971.39
2022-10-29T19:11:32.565Z,101971.44
2022-10-29T19:14:03.101Z,101973.63
2022-10-29T19:16:32.834Z,101975.38
2022-10-29T19:21:36.208Z,101979.54
2022-10-29T19:24:05.506Z,101976.23
2022-10-29T19:26:35.384Z,101975.42
2022-10-29T19:29:04.493Z,101977.98
2022-10-29T19:31:35.428Z,101980.80
2022-10-29T19:34:07.775Z,101981.95
2022-10-29T19:36:37.565Z,101982.14
2022-10-29T19:39:05.517Z,101983.27
2022-10-29T19:41:34.661Z,101985.61
2022-10-29T19:44:05.921Z,101984.34
2022-10-29T19:46:33.370Z,101984.43
2022-10-29T19:49:01.783Z,101987.30
2022-10-29T19:51:30.184Z,101989.93
2022-10-29T19:53:59.182Z,101990.24
2022-10-29T19:56:28.042Z,101989.77
2022-10-29T19:58:56.041Z,101993.39
2022-10-29T20:01:24.459Z,101995.03
2022-10-29T20:03:52.796Z,101994.07
2022-10-29T20:06:20.536Z,101995.84
2022-10-29T20:08:48.542Z,101990.19
2022-10-29T20:11:16.208Z,101992.91
2022-10-29T20:13:43.770Z,101992.80
2022-10-29T20:16:17.862Z,101991.04
2022-10-29T20:18:47.243Z,101994.67
2022-10-29T20:21:15.209Z,101994.30
2022-10-29T20:23:43.051Z,101995.52
2022-10-29T20:26:11.054Z,101995.80
2022-10-29T20:28:38.793Z,101994.99
2022-10-29T20:31:18.922Z,101994.51
2022-10-29T20:33:51.377Z,101995.58
2022-10-29T20:36:19.269Z,101994.14
2022-10-29T20:38:53.700Z,101991.21
2022-10-29T20:41:22.928Z,101990.62
2022-10-29T20:43:54.798Z,101988.11
2022-10-29T20:46:23.579Z,101991.26
2022-10-29T20:48:50.798Z,101993.02
2022-10-29T20:51:17.974Z,101993.29
2022-10-29T20:53:45.433Z,101993.71
2022-10-29T20:56:16.005Z,101990.30
2022-10-29T20:58:44.068Z,101988.27
2022-10-29T21:01:16.903Z,101991.33
2022-10-29T21:03:44.582Z,101993.23
2022-10-29T21:06:17.137Z,101994.56
2022-10-29T21:08:45.645Z,101994.19
2022-10-29T21:11:14.458Z,101996.80
2022-10-29T21:13:41.681Z,101996.59
2022-10-29T21:16:16.516Z,101995.95
2022-10-29T21:18:45.809Z,101995.05
2022-10-29T21:21:13.067Z,101995.27
2022-10-29T21:23:40.626Z,101994.25
2022-10-29T21:26:11.425Z,101991.16
2022-10-29T21:28:38.500Z,101993.34
2022-10-29T21:31:05.763Z,101991.31
2022-10-29T21:33:32.928Z,101991.68
2022-10-29T21:36:00.064Z,101988.16
2022-10-29T21:38:28.446Z,101992.14
2022-10-29T21:40:55.693Z,101995.30
2022-10-29T21:43:23.202Z,101993.70
2022-10-29T21:45:51.639Z,101995.84
2022-10-29T21:48:19.496Z,101992.10
2022-10-29T21:50:47.632Z,101991.32
2022-10-29T21:55:46.365Z,101993.16
2022-10-29T21:58:13.339Z,101990.38
2022-10-29T22:00:40.214Z,101989.27
2022-10-29T22:03:07.319Z,101987.34
2022-10-29T22:05:34.259Z,101988.30
2022-10-29T22:08:01.728Z,101985.85
2022-10-29T22:10:28.863Z,101987.35
2022-10-29T22:12:56.059Z,101986.17
2022-10-29T22:15:23.269Z,101984.69
2022-10-29T22:17:50.215Z,101982.67
2022-10-29T22:20:17.375Z,101983.45
2022-10-29T22:22:44.356Z,101983.88
2022-10-29T22:25:11.358Z,101982.23
2022-10-29T22:27:38.383Z,101984.68
2022-10-29T22:30:05.898Z,101988.79
2022-10-29T22:32:32.830Z,101990.02
2022-10-29T22:34:59.681Z,101988.19
2022-10-29T22:37:28.089Z,101987.39
2022-10-29T22:39:54.947Z,101987.62
2022-10-29T22:42:22.085Z,101982.98
2022-10-29T22:44:48.948Z,101979.10
2022-10-29T22:47:15.862Z,101977.86
2022-10-29T22:49:42.832Z,101979.20
2022-10-29T22:52:09.698Z,101978.30
2022-10-29T22:54:36.745Z,101976.34
2022-10-29T22:57:03.709Z,101974.41
2022-10-29T22:59:31.055Z,101973.25
2022-10-29T23:01:58.116Z,101976.18
2022-10-29T23:04:26.067Z,101974.85
2022-10-29T23:06:54.777Z,101974.85
2022-10-29T23:09:23.745Z,101971.42
2022-10-29T23:11:50.692Z,101974.31
2022-10-29T23:14:17.663Z,101975.52
2022-10-29T23:16:44.503Z,101972.29
2022-10-29T23:19:12.656Z,101971.10
2022-10-29T23:21:39.668Z,101967.48
2022-10-29T23:24:07.157Z,101968.70
2022-10-29T23:26:34.208Z,101965.98
2022-10-29T23:29:01.252Z,101964.27
2022-10-29T23:31:29.224Z,101967.30
2022-10-29T23:33:58.219Z,101965.13
2022-10-29T23:36:27.012Z,101963.95
2022-10-29T23:38:58.667Z,101961.65
2022-10-29T23:41:27.350Z,101960.05
2022-10-29T23:43:54.400Z,101958.50
2022-10-29T23:46:21.826Z,101958.45
2022-10-29T23:48:49.106Z,101955.20
2022-10-29T23:51:16.660Z,101952.54
2022-10-29T23:53:43.617Z,101950.94
2022-10-29T23:56:10.580Z,101948.96
2022-10-29T23:58:37.601Z,101943.32
